Time;durP1;ratioP1;P1;durP2;ratioP2;P2;SDS_P1;SDS_P2;PMS_P1;PMS_P2;Temp;Humidity;BMP_temperature;BMP_pressure;BME280_temperature;BME280_humidity;BME280_pressure;Samples;Min_cycle;Max_cycle;Signal;HPM_P1;HPM_P2
2023/06/06 00:00:54;;;;;;;;;;;;;;;23.83;37.39;101242.46;2222331;79;49633;-76
2023/06/06 00:03:56;;;;;;;;;;;;;;;23.82;37.40;101243.51;2253319;77;51570;-76
2023/06/06 00:06:57;;;;;;;;;;;;;;;23.82;37.45;101240.81;2259903;77;50345;-76
2023/06/06 00:10:00;;;;;;;;;;;;;;;23.82;37.44;101243.51;2286199;77;51553;-76
2023/06/06 00:13:01;;;;;;;;;;;;;;;23.82;37.40;101247.56;2255415;78;51591;-76
2023/06/06 00:16:04;;;;;;;;;;;;;;;23.82;37.42;101243.51;2255670;77;51503;-76
2023/06/06 00:19:06;;;;;;;;;;;;;;;23.81;37.44;101239.95;2245165;78;50318;-75
2023/06/06 00:22:07;;;;;;;;;;;;;;;23.82;37.40;101235.41;2246264;78;51571;-76
2023/06/06 00:25:09;;;;;;;;;;;;;;;23.81;37.44;101237.77;2221214;79;52026;-75
2023/06/06 00:28:11;;;;;;;;;;;;;;;23.79;37.60;101231.73;2245605;79;50788;-75
2023/06/06 00:31:12;;;;;;;;;;;;;;;23.77;37.54;101227.90;2269404;78;51426;-75
2023/06/06 00:34:14;;;;;;;;;;;;;;;23.76;37.67;101226.73;2235976;78;51461;-74
2023/06/06 00:37:16;;;;;;;;;;;;;;;23.77;37.55;101227.08;2195851;80;51736;-75
2023/06/06 00:40:17;;;;;;;;;;;;;;;23.77;37.61;101231.13;2219577;79;51530;-76
2023/06/06 00:43:19;;;;;;;;;;;;;;;23.77;37.49;101234.66;2228747;80;51521;-75
2023/06/06 00:46:21;;;;;;;;;;;;;;;23.80;37.42;101229.36;2233284;77;51339;-75
2023/06/06 00:49:22;;;;;;;;;;;;;;;23.80;37.29;101232.06;2216385;79;52330;-75
2023/06/06 00:52:24;;;;;;;;;;;;;;;23.80;37.27;101232.06;2244056;79;50234;-75
2023/06/06 00:55:26;;;;;;;;;;;;;;;23.80;37.22;101232.89;2244039;78;50689;-75
2023/06/06 00:58:27;;;;;;;;;;;;;;;23.79;37.23;101233.94;2214654;79;51463;-75
2023/06/06 01:01:29;;;;;;;;;;;;;;;23.80;37.23;101240.17;2251653;78;50668;-75
2023/06/06 01:04:31;;;;;;;;;;;;;;;23.79;37.18;101233.08;2246187;78;50316;-75
2023/06/06 01:07:35;;;;;;;;;;;;;;;23.80;37.13;101229.36;2219807;80;51616;-75
2023/06/06 01:10:36;;;;;;;;;;;;;;;23.80;37.11;101232.06;2229108;80;22412;-75
2023/06/06 01:13:46;;;;;;;;;;;;;;;23.79;37.04;101228.53;2243095;77;52417;-75
2023/06/06 01:16:49;;;;;;;;;;;;;;;23.79;37.02;101223.63;2271477;77;50245;-76
2023/06/06 01:19:51;;;;;;;;;;;;;;;23.78;37.03;101220.09;2261487;77;50688;-75
2023/06/06 01:22:52;;;;;;;;;;;;;;;23.78;36.99;101222.80;2353525;75;50643;-75
2023/06/06 01:25:54;;;;;;;;;;;;;;;23.76;37.04;101218.63;2325909;75;50357;-76
2023/06/06 01:28:56;;;;;;;;;;;;;;;23.76;37.06;101214.58;2353029;75;50640;-75
2023/06/06 01:31:59;;;;;;;;;;;;;;;23.77;37.02;101223.02;2334832;75;51444;-75
2023/06/06 01:35:02;;;;;;;;;;;;;;;23.76;37.02;101222.69;2345968;75;51642;-75
2023/06/06 01:38:07;;;;;;;;;;;;;;;23.76;37.06;101217.28;2334679;75;49672;-76
2023/06/06 01:41:09;;;;;;;;;;;;;;;23.75;37.08;101218.33;2334983;75;51436;-75
2023/06/06 01:44:11;;;;;;;;;;;;;;;23.75;37.11;101216.45;2351977;75;50158;-76
2023/06/06 01:47:12;;;;;;;;;;;;;;;23.75;37.12;101219.69;2338860;75;50629;-77
2023/06/06 01:50:14;;;;;;;;;;;;;;;23.74;37.10;101225.61;2308715;75;51646;-76
2023/06/06 01:53:16;;;;;;;;;;;;;;;23.75;37.09;101221.03;2225190;79;51507;-76
2023/06/06 01:56:17;;;;;;;;;;;;;;;23.74;37.11;101218.86;2229407;78;53739;-77
2023/06/06 01:59:19;;;;;;;;;;;;;;;23.74;37.12;101220.20;2221705;79;51440;-76
2023/06/06 02:02:21;;;;;;;;;;;;;;;23.74;37.14;101223.40;2197688;79;52592;-76
2023/06/06 02:05:23;;;;;;;;;;;;;;;23.73;37.14;101221.22;2255365;78;51556;-76
2023/06/06 02:08:25;;;;;;;;;;;;;;;23.74;37.12;101231.02;2325530;75;51543;-76
2023/06/06 02:11:28;;;;;;;;;;;;;;;23.74;37.13;101228.80;2258794;78;51447;-76
2023/06/06 02:14:29;;;;;;;;;;;;;;;23.74;37.13;101223.40;2343299;75;22302;-77
2023/06/06 02:17:31;;;;;;;;;;;;;;;23.74;37.08;101226.10;2324154;76;50334;-77
2023/06/06 02:20:33;;;;;;;;;;;;;;;23.73;37.09;101221.75;2340134;74;50386;-76
2023/06/06 02:23:34;;;;;;;;;;;;;;;23.72;37.08;101217.36;2341334;76;50649;-75
2023/06/06 02:26:36;;;;;;;;;;;;;;;23.70;37.05;101218.38;2342123;75;52289;-75
2023/06/06 02:29:38;;;;;;;;;;;;;;;23.70;37.05;101215.67;2285004;77;50298;-75
2023/06/06 02:32:41;;;;;;;;;;;;;;;23.70;37.05;101214.33;2302235;76;50640;-75
2023/06/06 02:35:43;;;;;;;;;;;;;;;23.72;37.06;101209.25;2324070;76;51565;-74
2023/06/06 02:38:45;;;;;;;;;;;;;;;23.71;37.05;101209.75;2270311;77;53033;-74
2023/06/06 02:41:47;;;;;;;;;;;;;;;23.72;37.05;101207.91;2309315;76;50633;-74
2023/06/06 02:44:48;;;;;;;;;;;;;;;23.72;37.06;101205.20;2301901;77;50825;-75
2023/06/06 02:47:50;;;;;;;;;;;;;;;23.73;37.04;101209.59;2327523;75;51550;-75
2023/06/06 02:50:52;;;;;;;;;;;;;;;23.68;37.27;101206.11;2341140;74;51618;-75
2023/06/06 02:53:54;;;;;;;;;;;;;;;23.68;37.20;101210.98;2350433;75;50736;-74
2023/06/06 02:56:55;;;;;;;;;;;;;;;23.69;37.20;101200.52;2350278;75;50303;-74
2023/06/06 02:59:58;;;;;;;;;;;;;;;23.69;37.19;101205.91;2350443;74;50620;-74
2023/06/06 03:03:01;;;;;;;;;;;;;;;23.68;37.22;101205.59;2350841;75;52420;-75
2023/06/06 03:06:03;;;;;;;;;;;;;;;23.67;37.30;101206.63;2341085;76;50337;-75
2023/06/06 03:09:05;;;;;;;;;;;;;;;23.67;37.22;101199.87;2323792;76;50755;-76
2023/06/06 03:12:06;;;;;;;;;;;;;;;23.69;37.19;101200.52;2323782;76;50529;-75
2023/06/06 03:15:09;;;;;;;;;;;;;;;23.68;37.15;101199.35;2314760;76;50270;-76
2023/06/06 03:18:11;;;;;;;;;;;;;;;23.67;37.05;101194.47;2307161;76;50364;-76
2023/06/06 03:21:14;;;;;;;;;;;;;;;23.67;37.05;101193.13;2276384;76;50255;-76
2023/06/06 03:24:16;;;;;;;;;;;;;;;23.67;37.03;101201.75;2276105;77;51515;-77
2023/06/06 03:27:17;;;;;;;;;;;;;;;23.66;37.00;101194.17;2308392;75;50633;-76
2023/06/06 03:30:19;;;;;;;;;;;;;;;23.67;36.94;101197.17;2311324;76;50116;-76
2023/06/06 03:33:21;;;;;;;;;;;;;;;23.66;36.90;101196.88;2279400;76;52353;-76
2023/06/06 03:36:23;;;;;;;;;;;;;;;23.66;36.82;101195.52;2297619;76;52400;-76
2023/06/06 03:39:25;;;;;;;;;;;;;;;23.65;36.86;101201.95;2293167;76;51462;-76
2023/06/06 03:42:27;;;;;;;;;;;;;;;23.65;36.86;101200.59;2292533;77;50822;-76
2023/06/06 03:45:28;;;;;;;;;;;;;;;23.65;36.85;101188.96;2259587;77;50716;-76
2023/06/06 03:48:30;;;;;;;;;;;;;;;23.64;36.92;101198.94;2275733;77;51438;-76
2023/06/06 03:51:32;;;;;;;;;;;;;;;23.66;36.87;101197.37;2297206;77;51406;-76
2023/06/06 03:54:36;;;;;;;;;;;;;;;23.64;36.88;101198.94;2276065;77;52478;-76
2023/06/06 03:57:37;;;;;;;;;;;;;;;23.64;36.88;101199.47;2279163;76;22353;-76
2023/06/06 04:00:39;;;;;;;;;;;;;;;23.65;36.85;101197.06;2296030;76;50584;-76
2023/06/06 04:03:42;;;;;;;;;;;;;;;23.65;36.81;101202.47;2297729;76;50319;-76
2023/06/06 04:06:43;;;;;;;;;;;;;;;23.66;36.77;101196.02;2275820;77;51552;-76
2023/06/06 04:09:45;;;;;;;;;;;;;;;23.65;36.80;101191.14;2294719;76;51511;-75
2023/06/06 04:12:47;;;;;;;;;;;;;;;23.65;36.77;101193.84;2314495;76;50667;-76
2023/06/06 04:15:49;;;;;;;;;;;;;;;23.66;36.81;101194.17;2336900;76;51480;-75
2023/06/06 04:18:52;;;;;;;;;;;;;;;23.65;36.82;101195.72;2313030;76;50138;-75
2023/06/06 04:21:58;;;;;;;;;;;;;;;23.65;36.80;101206.00;2264782;76;49915;-75
2023/06/06 04:24:59;;;;;;;;;;;;;;;23.65;36.80;101198.42;2297217;77;50701;-75
2023/06/06 04:28:01;;;;;;;;;;;;;;;23.65;36.82;101200.59;2298545;76;51360;-75
2023/06/06 04:31:07;;;;;;;;;;;;;;;23.65;36.75;101187.09;2301492;76;51688;-76
2023/06/06 04:34:06;;;;;;;;;;;;;;;23.65;36.73;101199.24;2267222;76;21971;-75
2023/06/06 04:37:08;;;;;;;;;;;;;;;23.65;36.73;101188.44;2314106;76;51528;-74
2023/06/06 04:40:13;;;;;;;;;;;;;;;23.65;36.70;101187.61;2336512;75;51498;-76
2023/06/06 04:43:23;;;;;;;;;;;;;;;23.63;36.98;101193.73;2264936;77;52597;-75
2023/06/06 04:46:21;;;;;;;;;;;;;;;23.64;37.03;101193.53;2298022;76;22958;-74
2023/06/06 04:49:21;;;;;;;;;;;;;;;23.67;37.02;101197.70;2318568;76;22523;-75
2023/06/06 04:52:23;;;;;;;;;;;;;;;23.70;36.96;101194.06;2336603;76;51498;-75
2023/06/06 04:55:27;;;;;;;;;;;;;;;23.75;36.83;101188.61;2314452;76;51727;-76
2023/06/06 04:58:31;;;;;;;;;;;;;;;23.80;36.74;101195.06;2333743;75;22773;-73
2023/06/06 05:01:36;;;;;;;;;;;;;;;23.85;36.62;101187.17;2319864;76;22378;-73
2023/06/06 05:04:38;;;;;;;;;;;;;;;23.91;36.41;101190.91;2297223;77;50771;-73
2023/06/06 05:07:40;;;;;;;;;;;;;;;23.95;36.17;101200.30;2296936;76;51563;-74
2023/06/06 05:10:42;;;;;;;;;;;;;;;24.00;36.07;101195.63;2314811;76;50264;-73
2023/06/06 05:13:43;;;;;;;;;;;;;;;24.03;35.90;101194.69;2317623;75;51468;-74
2023/06/06 05:16:46;;;;;;;;;;;;;;;24.07;35.79;101194.59;2353036;75;51322;-73
2023/06/06 05:19:48;;;;;;;;;;;;;;;24.13;35.68;101192.41;2309292;75;49548;-72
2023/06/06 05:22:50;;;;;;;;;;;;;;;24.19;35.57;101200.20;2352949;75;50604;-73
2023/06/06 05:25:51;;;;;;;;;;;;;;;24.24;35.49;101198.23;2345160;75;50710;-73
2023/06/06 05:28:53;;;;;;;;;;;;;;;24.28;35.43;101213.84;2320096;75;51512;-74
2023/06/06 05:31:55;;;;;;;;;;;;;;;24.34;35.43;101210.83;2299458;75;52464;-72
2023/06/06 05:34:56;;;;;;;;;;;;;;;24.39;35.37;101208.33;2307772;76;50236;-74
2023/06/06 05:37:58;;;;;;;;;;;;;;;24.44;35.26;101215.30;2324509;75;50200;-74
2023/06/06 05:40:59;;;;;;;;;;;;;;;24.49;35.04;101220.95;2352402;75;50400;-74
2023/06/06 05:44:01;;;;;;;;;;;;;;;24.54;34.94;101217.63;2275031;75;49698;-74
2023/06/06 05:47:03;;;;;;;;;;;;;;;24.56;34.81;101218.25;2303222;75;50645;-73
2023/06/06 05:50:05;;;;;;;;;;;;;;;24.62;34.69;101215.22;2321700;75;49979;-72
2023/06/06 05:53:07;;;;;;;;;;;;;;;24.65;34.59;101226.98;2312721;77;51587;-72
2023/06/06 05:56:08;;;;;;;;;;;;;;;24.67;34.50;101224.90;2297646;75;52557;-75
2023/06/06 05:59:10;;;;;;;;;;;;;;;24.69;34.44;101221.47;2306003;76;50781;-73
2023/06/06 06:02:14;;;;;;;;;;;;;;;24.72;34.40;101226.45;2320514;75;52588;-73
2023/06/06 06:05:16;;;;;;;;;;;;;;;24.75;34.34;101230.09;2320347;75;22437;-76
2023/06/06 06:08:18;;;;;;;;;;;;;;;24.75;34.40;101224.15;2295312;77;51029;-74
2023/06/06 06:11:19;;;;;;;;;;;;;;;24.82;34.25;101239.56;2312354;77;51480;-73
2023/06/06 06:14:21;;;;;;;;;;;;;;;24.89;34.16;101233.10;2305494;76;50783;-74
2023/06/06 06:17:23;;;;;;;;;;;;;;;24.86;34.21;101237.55;2280907;78;53170;-72
2023/06/06 06:20:24;;;;;;;;;;;;;;;24.84;34.23;101246.44;2256088;78;51540;-73
2023/06/06 06:23:26;;;;;;;;;;;;;;;24.85;34.25;101248.09;2281342;78;51416;-74
2023/06/06 06:26:27;;;;;;;;;;;;;;;24.84;34.29;101246.44;2290718;76;51571;-73
2023/06/06 06:29:29;;;;;;;;;;;;;;;24.90;34.18;101239.34;2267827;77;50580;-73
2023/06/06 06:32:33;;;;;;;;;;;;;;;24.91;34.24;101245.88;2283846;76;52582;-73
2023/06/06 06:35:35;;;;;;;;;;;;;;;24.98;34.10;101243.17;2295818;76;50664;-73
2023/06/06 06:38:36;;;;;;;;;;;;;;;24.88;34.20;101244.95;2296904;76;50194;-74
2023/06/06 06:41:38;;;;;;;;;;;;;;;24.85;34.22;101251.32;2297554;76;50629;-74
2023/06/06 06:44:39;;;;;;;;;;;;;;;24.76;34.26;101249.33;2272207;76;52654;-74
2023/06/06 06:47:43;;;;;;;;;;;;;;;24.72;34.27;101253.52;2297437;75;51569;-73
2023/06/06 06:50:45;;;;;;;;;;;;;;;24.71;34.30;101258.59;2328112;76;50285;-73
2023/06/06 06:53:49;;;;;;;;;;;;;;;24.67;34.24;101259.55;2297696;76;50838;-73
2023/06/06 06:56:51;;;;;;;;;;;;;;;24.67;34.23;101256.84;2326443;76;23725;-74
2023/06/06 06:59:53;;;;;;;;;;;;;;;24.68;34.22;101254.97;2296812;76;50675;-74
2023/06/06 07:02:56;;;;;;;;;;;;;;;24.65;34.23;101259.45;2291719;76;50347;-74
2023/06/06 07:05:57;;;;;;;;;;;;;;;24.61;34.28;101267.16;2259741;76;51644;-74
2023/06/06 07:09:00;;;;;;;;;;;;;;;24.60;34.24;101269.53;2259360;77;51539;-74
2023/06/06 07:12:02;;;;;;;;;;;;;;;24.60;34.22;101257.89;2287653;77;50667;-74
2023/06/06 07:15:05;;;;;;;;;;;;;;;24.59;34.22;101264.35;2292622;76;50299;-74
2023/06/06 07:18:06;;;;;;;;;;;;;;;24.55;34.32;101272.03;2284482;77;50761;-73
2023/06/06 07:21:08;;;;;;;;;;;;;;;24.54;34.34;101271.73;2284809;77;52294;-74
2023/06/06 07:24:09;;;;;;;;;;;;;;;24.51;34.36;101270.28;2284862;77;51505;-74
2023/06/06 07:27:13;;;;;;;;;;;;;;;24.52;34.37;101269.22;2301695;76;50272;-74
2023/06/06 07:30:14;;;;;;;;;;;;;;;24.49;34.38;101276.41;2300504;74;22448;-75
2023/06/06 07:33:16;;;;;;;;;;;;;;;24.52;34.35;101268.39;2297733;76;51933;-74
2023/06/06 07:36:18;;;;;;;;;;;;;;;24.56;34.44;101272.37;2350271;75;50229;-74
2023/06/06 07:39:20;;;;;;;;;;;;;;;24.57;34.47;101263.20;2350302;74;50766;-74
2023/06/06 07:42:21;;;;;;;;;;;;;;;24.57;34.45;101255.61;2350440;75;51461;-74
2023/06/06 07:45:23;;;;;;;;;;;;;;;24.52;34.45;101257.05;2350423;75;49982;-74
2023/06/06 07:48:25;;;;;;;;;;;;;;;24.53;34.39;101261.94;2350150;75;52264;-74
2023/06/06 07:51:26;;;;;;;;;;;;;;;24.50;34.42;101260.48;2341153;74;51620;-74
2023/06/06 07:54:28;;;;;;;;;;;;;;;24.48;34.46;101261.23;2341514;76;51440;-74
2023/06/06 07:57:31;;;;;;;;;;;;;;;24.47;34.42;101265.48;2323755;76;51001;-74
2023/06/06 08:00:33;;;;;;;;;;;;;;;24.44;34.46;101259.94;2325955;75;50689;-75
2023/06/06 08:03:34;;;;;;;;;;;;;;;24.43;34.49;101261.48;2350478;75;53385;-74
2023/06/06 08:06:37;;;;;;;;;;;;;;;24.43;34.48;101261.48;2350194;75;51361;-74
2023/06/06 08:09:38;;;;;;;;;;;;;;;24.41;34.47;101259.00;2350405;74;52434;-74
2023/06/06 08:12:40;;;;;;;;;;;;;;;24.42;34.49;101255.77;2350400;75;50362;-75
2023/06/06 08:15:41;;;;;;;;;;;;;;;24.42;34.48;101257.95;2351553;75;50185;-74
2023/06/06 08:18:43;;;;;;;;;;;;;;;24.41;34.54;101260.35;2344416;76;50541;-74
2023/06/06 08:21:45;;;;;;;;;;;;;;;24.41;34.56;101260.35;2351315;75;50911;-75
2023/06/06 08:24:46;;;;;;;;;;;;;;;24.41;34.56;101261.70;2351354;75;50286;-75
2023/06/06 08:27:48;;;;;;;;;;;;;;;24.39;34.60;101259.72;2351123;75;50687;-74
2023/06/06 08:30:51;;;;;;;;;;;;;;;24.38;34.66;101258.07;2322418;75;51487;-74
2023/06/06 08:33:52;;;;;;;;;;;;;;;24.37;34.70;101267.20;2351222;75;50532;-75
2023/06/06 08:36:54;;;;;;;;;;;;;;;24.39;34.65;101258.90;2344403;76;51314;-74
2023/06/06 08:39:56;;;;;;;;;;;;;;;24.36;34.71;101257.44;2344431;74;50372;-73
2023/06/06 08:42:58;;;;;;;;;;;;;;;24.37;34.71;101255.56;2351234;75;51523;-73
2023/06/06 08:46:00;;;;;;;;;;;;;;;24.35;34.76;101263.87;2351170;75;52652;-74
2023/06/06 08:49:05;;;;;;;;;;;;;;;24.34;34.77;101265.75;2344267;76;51429;-73
2023/06/06 08:52:07;;;;;;;;;;;;;;;24.36;34.79;101263.38;2351297;75;51538;-74
2023/06/06 08:55:08;;;;;;;;;;;;;;;24.36;34.83;101260.67;2351278;75;51521;-75
2023/06/06 08:58:10;;;;;;;;;;;;;;;24.31;34.92;101262.64;2320952;76;52473;-74
2023/06/06 09:01:11;;;;;;;;;;;;;;;24.30;34.97;101263.16;2328056;74;50614;-74
2023/06/06 09:04:15;;;;;;;;;;;;;;;24.33;34.93;101260.03;2344542;76;51336;-74
2023/06/06 09:07:16;;;;;;;;;;;;;;;24.33;34.99;101261.91;2344452;76;24733;-74
2023/06/06 09:10:18;;;;;;;;;;;;;;;24.32;35.00;101261.05;2351132;75;52406;-74
2023/06/06 09:13:19;;;;;;;;;;;;;;;24.33;35.00;101271.37;2351343;75;51401;-75
2023/06/06 09:16:21;;;;;;;;;;;;;;;24.32;35.04;101264.29;2355913;75;49999;-74
2023/06/06 09:19:26;;;;;;;;;;;;;;;24.32;35.09;101257.52;2352925;74;51536;-74
2023/06/06 09:22:27;;;;;;;;;;;;;;;24.34;35.08;101260.86;2335012;75;51761;-74
2023/06/06 09:25:29;;;;;;;;;;;;;;;24.36;35.08;101257.96;2362458;75;50725;-74
2023/06/06 09:28:40;;;;;;;;;;;;;;;24.36;35.11;101257.44;2353141;75;51458;-75
2023/06/06 09:31:42;;;;;;;;;;;;;;;24.35;35.14;101269.28;2339044;75;51506;-75
2023/06/06 09:34:44;;;;;;;;;;;;;;;24.35;35.16;101258.45;2334904;75;49580;-74
2023/06/06 09:37:46;;;;;;;;;;;;;;;24.33;35.26;101260.03;2352555;75;51556;-73
2023/06/06 09:40:48;;;;;;;;;;;;;;;24.33;35.27;101255.16;2352836;75;50666;-73
2023/06/06 09:43:50;;;;;;;;;;;;;;;24.34;35.25;101260.86;2335043;75;51637;-74
2023/06/06 09:47:01;;;;;;;;;;;;;;;24.33;35.29;101264.09;2308717;75;52478;-73
2023/06/06 09:50:03;;;;;;;;;;;;;;;24.33;35.29;101263.27;2335005;75;50751;-75
2023/06/06 09:53:06;;;;;;;;;;;;;;;24.32;35.35;101262.94;2335069;75;50722;-73
2023/06/06 09:56:07;;;;;;;;;;;;;;;24.33;35.36;101268.67;2352709;75;50471;-76
2023/06/06 09:59:09;;;;;;;;;;;;;;;24.33;35.37;101261.39;2354807;75;51455;-74
2023/06/06 10:02:11;;;;;;;;;;;;;;;24.30;35.44;101260.45;2339199;75;51581;-74
2023/06/06 10:05:13;;;;;;;;;;;;;;;24.30;35.48;101259.59;2352648;75;51368;-74
2023/06/06 10:08:17;;;;;;;;;;;;;;;24.30;35.50;101262.30;2352643;75;50597;-74
2023/06/06 10:11:20;;;;;;;;;;;;;;;24.32;35.53;101264.29;2352972;75;22424;-74
2023/06/06 10:14:22;;;;;;;;;;;;;;;24.31;35.56;101270.75;2335390;75;22384;-74
2023/06/06 10:17:26;;;;;;;;;;;;;;;24.31;35.56;101261.28;2330451;75;50844;-74
2023/06/06 10:20:28;;;;;;;;;;;;;;;24.31;35.60;101263.46;2348081;75;51462;-75
2023/06/06 10:23:30;;;;;;;;;;;;;;;24.32;35.65;101257.52;2302042;75;52415;-74
2023/06/06 10:26:33;;;;;;;;;;;;;;;24.32;35.66;101260.23;2347820;75;50477;-74
2023/06/06 10:29:36;;;;;;;;;;;;;;;24.33;35.69;101252.45;2350379;75;50674;-74
2023/06/06 10:32:56;;;;;;;;;;;;;;;24.34;35.70;101259.52;2334629;75;51513;-75
2023/06/06 10:35:59;;;;;;;;;;;;;;;24.34;35.71;101259.52;2355061;75;52637;-74
2023/06/06 10:39:17;;;;;;;;;;;;;;;24.36;35.69;101256.61;2347903;75;50276;-74
2023/06/06 10:42:18;;;;;;;;;;;;;;;24.34;35.74;101256.28;2347994;75;50770;-74
2023/06/06 10:45:22;;;;;;;;;;;;;;;24.35;35.76;101258.45;2348043;75;51424;-75
2023/06/06 10:48:25;;;;;;;;;;;;;;;24.34;35.79;101264.92;2327842;75;52603;-74
2023/06/06 10:51:28;;;;;;;;;;;;;;;24.35;35.78;101257.11;2348565;74;51487;-75
2023/06/06 10:54:30;;;;;;;;;;;;;;;24.35;35.83;101253.05;2348186;75;51587;-74
2023/06/06 10:57:31;;;;;;;;;;;;;;;24.34;35.86;101257.63;2354888;75;51437;-75
2023/06/06 11:00:33;;;;;;;;;;;;;;;24.33;35.87;101252.45;2315668;75;50959;-74
2023/06/06 11:03:37;;;;;;;;;;;;;;;24.32;35.91;101250.77;2277773;77;49918;-74
2023/06/06 11:06:39;;;;;;;;;;;;;;;24.33;35.91;101253.27;2307469;76;51578;-73
2023/06/06 11:09:41;;;;;;;;;;;;;;;24.32;35.95;101247.53;2308479;76;51505;-73
2023/06/06 11:12:43;;;;;;;;;;;;;;;24.32;36.00;101246.18;2252172;77;49697;-74
2023/06/06 11:15:45;;;;;;;;;;;;;;;24.30;36.03;101237.47;2277312;77;50259;-74
2023/06/06 11:18:48;;;;;;;;;;;;;;;24.31;36.02;101235.06;2277088;77;51508;-73
2023/06/06 11:21:50;;;;;;;;;;;;;;;24.34;36.03;101233.81;2277230;77;51765;-74
2023/06/06 11:24:52;;;;;;;;;;;;;;;24.34;36.00;101241.93;2277269;77;52428;-75
2023/06/06 11:27:53;;;;;;;;;;;;;;;24.33;36.02;101229.46;2308425;76;50435;-74
2023/06/06 11:30:55;;;;;;;;;;;;;;;24.34;36.05;101239.22;2325906;74;50323;-75
2023/06/06 11:34:05;;;;;;;;;;;;;;;24.32;36.10;101239.95;2308525;77;50265;-74
2023/06/06 11:37:08;;;;;;;;;;;;;;;24.32;36.09;101238.06;2288602;77;50102;-74
2023/06/06 11:40:11;;;;;;;;;;;;;;;24.31;36.14;101235.06;2308621;76;51542;-75
2023/06/06 11:43:13;;;;;;;;;;;;;;;24.35;36.12;101231.41;2308574;76;51581;-75
2023/06/06 11:46:15;;;;;;;;;;;;;;;24.32;36.17;101234.53;2289436;77;51607;-75
2023/06/06 11:49:17;;;;;;;;;;;;;;;24.33;36.17;101230.81;2289103;77;50763;-76
2023/06/06 11:52:18;;;;;;;;;;;;;;;24.31;36.21;101231.53;2308664;77;50389;-75
2023/06/06 11:55:20;;;;;;;;;;;;;;;24.29;36.21;101224.14;2308580;77;50198;-74
2023/06/06 11:58:21;;;;;;;;;;;;;;;24.30;36.21;101228.00;2309696;75;50645;-75
2023/06/06 12:01:24;;;;;;;;;;;;;;;24.31;36.21;101235.59;2312436;75;52726;-75
2023/06/06 12:04:26;;;;;;;;;;;;;;;24.31;36.20;101234.23;2308537;76;50517;-75
2023/06/06 12:07:28;;;;;;;;;;;;;;;24.31;36.18;101225.59;2308303;77;51474;-75
2023/06/06 12:10:30;;;;;;;;;;;;;;;24.31;36.22;101228.83;2308495;76;51612;-74
2023/06/06 12:13:35;;;;;;;;;;;;;;;24.30;36.27;101223.95;2308561;77;50498;-73
2023/06/06 12:16:36;;;;;;;;;;;;;;;24.32;36.24;101223.72;2307253;76;50859;-75
2023/06/06 12:19:38;;;;;;;;;;;;;;;24.33;36.21;101217.29;2272514;77;50696;-73
2023/06/06 12:22:39;;;;;;;;;;;;;;;24.31;36.27;101222.89;2272779;77;51666;-74
2023/06/06 12:25:41;;;;;;;;;;;;;;;24.32;36.28;101219.66;2301485;77;50696;-75
2023/06/06 12:28:58;;;;;;;;;;;;;;;24.30;36.29;101215.83;2276718;74;50394;-74
2023/06/06 12:32:16;;;;;;;;;;;;;;;24.32;36.30;101208.84;2318671;75;22440;-74
2023/06/06 12:35:21;;;;;;;;;;;;;;;24.32;36.30;101208.84;2348628;74;50431;-74
2023/06/06 12:38:23;;;;;;;;;;;;;;;24.32;36.30;101211.02;2318663;75;52665;-74
2023/06/06 12:41:26;;;;;;;;;;;;;;;24.30;36.35;101205.02;2318936;75;50508;-75
2023/06/06 12:44:28;;;;;;;;;;;;;;;24.31;36.41;101207.19;2347045;75;50757;-76
2023/06/06 12:47:29;;;;;;;;;;;;;;;24.30;36.43;101201.45;2348593;75;51535;-73
2023/06/06 12:50:31;;;;;;;;;;;;;;;24.30;36.48;101203.66;2293494;75;49656;-74
2023/06/06 12:53:32;;;;;;;;;;;;;;;24.30;36.48;101205.51;2348954;74;50209;-74
2023/06/06 12:56:34;;;;;;;;;;;;;;;24.29;36.48;101197.09;2348648;75;49884;-74
2023/06/06 12:59:38;;;;;;;;;;;;;;;24.30;36.50;101201.45;2347830;75;50223;-74
2023/06/06 13:02:39;;;;;;;;;;;;;;;24.30;36.51;101191.98;2334586;75;22426;-74
2023/06/06 13:05:41;;;;;;;;;;;;;;;24.29;36.53;101194.39;2317292;76;50278;-74
2023/06/06 13:08:42;;;;;;;;;;;;;;;24.27;36.56;101193.23;2316943;76;50667;-74
2023/06/06 13:11:45;;;;;;;;;;;;;;;24.27;36.58;101197.81;2317112;76;50085;-73
2023/06/06 13:14:46;;;;;;;;;;;;;;;24.25;36.61;101196.69;2315371;76;51725;-74
2023/06/06 13:17:48;;;;;;;;;;;;;;;24.23;36.64;101193.88;2346290;76;51473;-73
2023/06/06 13:20:55;;;;;;;;;;;;;;;24.23;36.65;101200.11;2313944;76;51471;-74
2023/06/06 13:23:56;;;;;;;;;;;;;;;24.23;36.67;101193.88;2346383;76;22790;-74
2023/06/06 13:26:57;;;;;;;;;;;;;;;24.23;36.65;101196.06;2312286;76;52331;-74
2023/06/06 13:29:59;;;;;;;;;;;;;;;24.24;36.61;101196.89;2313235;74;51412;-73
2023/06/06 13:33:00;;;;;;;;;;;;;;;24.23;36.64;101194.70;2308587;77;51415;-74
2023/06/06 13:36:02;;;;;;;;;;;;;;;24.24;36.63;101195.53;2289385;77;51417;-75
2023/06/06 13:39:04;;;;;;;;;;;;;;;24.26;36.59;101201.57;2289150;77;51397;-75
2023/06/06 13:42:06;;;;;;;;;;;;;;;24.25;36.60;101191.77;2289420;77;51539;-74
2023/06/06 13:45:08;;;;;;;;;;;;;;;24.26;36.61;101190.75;2289172;77;50730;-74
2023/06/06 13:48:10;;;;;;;;;;;;;;;24.27;36.54;101191.05;2288911;77;51421;-75
2023/06/06 13:51:11;;;;;;;;;;;;;;;24.26;36.57;101198.87;2289248;77;51440;-75
2023/06/06 13:54:13;;;;;;;;;;;;;;;24.25;36.58;101197.19;2289361;77;50279;-75
2023/06/06 13:57:14;;;;;;;;;;;;;;;24.25;36.55;101188.58;2308461;77;50625;-75
2023/06/06 14:00:16;;;;;;;;;;;;;;;24.25;36.57;101186.37;2301693;76;49971;-75
2023/06/06 14:03:18;;;;;;;;;;;;;;;24.24;36.61;101190.13;2293749;75;51123;-76
2023/06/06 14:06:19;;;;;;;;;;;;;;;24.23;36.63;101188.47;2343113;75;51434;-72
2023/06/06 14:09:21;;;;;;;;;;;;;;;24.21;36.67;101186.48;2348021;75;51502;-73
2023/06/06 14:12:23;;;;;;;;;;;;;;;24.22;36.66;101190.84;2347971;74;51504;-73
2023/06/06 14:15:24;;;;;;;;;;;;;;;24.25;36.65;101180.95;2282254;76;52292;-73
2023/06/06 14:18:26;;;;;;;;;;;;;;;24.25;36.70;101185.02;2300367;76;50689;-74
2023/06/06 14:24:46;;;;;;;;;;;;;;;24.21;37.00;101179.20;2312701;77;22351;-74
2023/06/06 14:27:47;;;;;;;;;;;;;;;24.21;37.12;101182.44;2321522;76;52439;-73
2023/06/06 14:30:49;;;;;;;;;;;;;;;24.21;37.16;101183.78;2323321;75;51449;-73
2023/06/06 14:33:51;;;;;;;;;;;;;;;24.21;37.31;101187.84;2350243;75;51450;-74
2023/06/06 14:36:52;;;;;;;;;;;;;;;24.24;37.31;101182.01;2334724;75;51626;-74
2023/06/06 14:39:54;;;;;;;;;;;;;;;24.24;37.42;101182.01;2334327;75;51505;-74
2023/06/06 14:42:55;;;;;;;;;;;;;;;24.26;37.50;101188.05;2352642;75;50419;-75
2023/06/06 14:45:57;;;;;;;;;;;;;;;24.27;37.48;101191.05;2352457;75;50333;-75
2023/06/06 14:48:58;;;;;;;;;;;;;;;24.26;37.65;101191.58;2352443;75;50258;-73
2023/06/06 14:52:00;;;;;;;;;;;;;;;24.26;37.63;101192.11;2334567;75;50050;-74
2023/06/06 14:55:02;;;;;;;;;;;;;;;24.27;37.70;101189.17;2352718;75;50336;-74
2023/06/06 14:58:03;;;;;;;;;;;;;;;24.28;37.72;101193.56;2334755;75;50120;-74
2023/06/06 15:01:05;;;;;;;;;;;;;;;24.27;37.71;101197.29;2356798;75;50624;-75
2023/06/06 15:04:07;;;;;;;;;;;;;;;24.27;37.77;101194.58;2295728;77;50422;-74
2023/06/06 15:07:09;;;;;;;;;;;;;;;24.26;37.85;101201.05;2312338;77;50745;-74
2023/06/06 15:10:11;;;;;;;;;;;;;;;24.27;37.84;101199.99;2295889;77;51570;-74
2023/06/06 15:13:13;;;;;;;;;;;;;;;24.28;37.83;101198.97;2312673;77;51531;-75
2023/06/06 15:16:14;;;;;;;;;;;;;;;24.27;37.84;101198.64;2295585;77;51412;-74
2023/06/06 15:19:16;;;;;;;;;;;;;;;24.30;37.70;101200.09;2293695;77;51404;-74
2023/06/06 15:22:18;;;;;;;;;;;;;;;24.30;37.68;101195.55;2287314;77;50152;-74
2023/06/06 15:25:19;;;;;;;;;;;;;;;24.27;37.76;101193.76;2287325;77;51955;-74
2023/06/06 15:28:21;;;;;;;;;;;;;;;24.26;37.74;101185.34;2261903;77;51027;-74
2023/06/06 15:31:23;;;;;;;;;;;;;;;24.26;37.76;101183.99;2320591;75;50615;-74
2023/06/06 15:34:25;;;;;;;;;;;;;;;24.25;37.77;101187.72;2354261;75;50414;-74
2023/06/06 15:37:26;;;;;;;;;;;;;;;24.25;37.80;101179.61;2310512;75;51531;-73